sensor_id;sensor_type;location;lat;lon;timestamp;P1;durP1;ratioP1;P2;durP2;ratioP2
54259;SDS011;40172;53.022;7.012;2023-07-09T00:00:40;15.68;;;8.00;;
54259;SDS011;40172;53.022;7.012;2023-07-09T00:03:06;10.88;;;7.53;;
54259;SDS011;40172;53.022;7.012;2023-07-09T00:05:34;8.85;;;7.18;;
54259;SDS011;40172;53.022;7.012;2023-07-09T00:07:59;15.70;;;7.43;;
54259;SDS011;40172;53.022;7.012;2023-07-09T00:10:25;11.95;;;8.40;;
54259;SDS011;40172;53.022;7.012;2023-07-09T00:12:51;14.00;;;7.95;;
54259;SDS011;40172;53.022;7.012;2023-07-09T00:15:16;14.18;;;8.13;;
54259;SDS011;40172;53.022;7.012;2023-07-09T00:17:43;12.30;;;8.05;;
54259;SDS011;40172;53.022;7.012;2023-07-09T00:20:11;10.50;;;7.93;;
54259;SDS011;40172;53.022;7.012;2023-07-09T00:22:39;10.52;;;8.15;;
54259;SDS011;40172;53.022;7.012;2023-07-09T00:25:07;12.27;;;7.60;;
54259;SDS011;40172;53.022;7.012;2023-07-09T00:27:38;13.67;;;8.27;;
54259;SDS011;40172;53.022;7.012;2023-07-09T00:30:05;11.32;;;8.13;;
54259;SDS011;40172;53.022;7.012;2023-07-09T00:32:38;9.82;;;7.93;;
54259;SDS011;40172;53.022;7.012;2023-07-09T00:35:08;13.55;;;8.05;;
54259;SDS011;40172;53.022;7.012;2023-07-09T00:37:37;10.82;;;8.18;;
54259;SDS011;40172;53.022;7.012;2023-07-09T00:40:03;14.50;;;8.13;;
54259;SDS011;40172;53.022;7.012;2023-07-09T00:42:30;15.15;;;8.50;;
54259;SDS011;40172;53.022;7.012;2023-07-09T00:44:55;14.13;;;8.45;;
54259;SDS011;40172;53.022;7.012;2023-07-09T00:50:33;16.48;;;8.13;;
54259;SDS011;40172;53.022;7.012;2023-07-09T00:53:10;9.60;;;8.18;;
54259;SDS011;40172;53.022;7.012;2023-07-09T00:55:42;13.90;;;8.15;;
54259;SDS011;40172;53.022;7.012;2023-07-09T00:58:13;13.82;;;7.50;;
54259;SDS011;40172;53.022;7.012;2023-07-09T01:00:44;10.43;;;7.82;;
54259;SDS011;40172;53.022;7.012;2023-07-09T01:03:27;9.75;;;7.75;;
54259;SDS011;40172;53.022;7.012;2023-07-09T01:05:57;10.45;;;7.82;;
54259;SDS011;40172;53.022;7.012;2023-07-09T01:08:23;13.20;;;7.60;;
54259;SDS011;40172;53.022;7.012;2023-07-09T01:10:49;16.40;;;8.27;;
54259;SDS011;40172;53.022;7.012;2023-07-09T01:13:16;11.80;;;8.20;;
54259;SDS011;40172;53.022;7.012;2023-07-09T01:15:44;14.30;;;8.18;;
54259;SDS011;40172;53.022;7.012;2023-07-09T01:18:11;15.52;;;8.07;;
54259;SDS011;40172;53.022;7.012;2023-07-09T01:20:38;14.15;;;8.68;;
54259;SDS011;40172;53.022;7.012;2023-07-09T01:23:04;14.25;;;8.30;;
54259;SDS011;40172;53.022;7.012;2023-07-09T01:25:31;11.18;;;7.93;;
54259;SDS011;40172;53.022;7.012;2023-07-09T01:27:57;10.45;;;7.43;;
54259;SDS011;40172;53.022;7.012;2023-07-09T01:30:24;12.65;;;8.20;;
54259;SDS011;40172;53.022;7.012;2023-07-09T01:33:00;13.77;;;8.38;;
54259;SDS011;40172;53.022;7.012;2023-07-09T01:35:26;9.75;;;8.65;;
54259;SDS011;40172;53.022;7.012;2023-07-09T01:37:54;12.77;;;8.65;;
54259;SDS011;40172;53.022;7.012;2023-07-09T01:40:22;14.63;;;8.63;;
54259;SDS011;40172;53.022;7.012;2023-07-09T01:42:50;12.23;;;8.35;;
54259;SDS011;40172;53.022;7.012;2023-07-09T01:45:16;11.45;;;8.55;;
54259;SDS011;40172;53.022;7.012;2023-07-09T01:47:42;10.13;;;8.60;;
54259;SDS011;40172;53.022;7.012;2023-07-09T01:50:09;11.88;;;8.60;;
54259;SDS011;40172;53.022;7.012;2023-07-09T01:52:36;12.93;;;8.82;;
54259;SDS011;40172;53.022;7.012;2023-07-09T01:55:04;10.90;;;9.00;;
54259;SDS011;40172;53.022;7.012;2023-07-09T01:57:31;14.63;;;9.10;;
54259;SDS011;40172;53.022;7.012;2023-07-09T02:00:04;15.30;;;8.57;;
54259;SDS011;40172;53.022;7.012;2023-07-09T02:02:36;16.27;;;8.82;;
54259;SDS011;40172;53.022;7.012;2023-07-09T02:05:04;11.10;;;8.50;;
54259;SDS011;40172;53.022;7.012;2023-07-09T02:07:30;13.43;;;8.57;;
54259;SDS011;40172;53.022;7.012;2023-07-09T02:09:56;15.30;;;9.10;;
54259;SDS011;40172;53.022;7.012;2023-07-09T02:12:23;14.18;;;8.68;;
54259;SDS011;40172;53.022;7.012;2023-07-09T02:14:49;12.90;;;8.63;;
54259;SDS011;40172;53.022;7.012;2023-07-09T02:17:15;12.98;;;8.63;;
54259;SDS011;40172;53.022;7.012;2023-07-09T02:19:41;14.55;;;8.73;;
54259;SDS011;40172;53.022;7.012;2023-07-09T02:22:07;16.40;;;8.65;;
54259;SDS011;40172;53.022;7.012;2023-07-09T02:24:33;16.65;;;9.20;;
54259;SDS011;40172;53.022;7.012;2023-07-09T02:27:00;13.40;;;8.32;;
54259;SDS011;40172;53.022;7.012;2023-07-09T02:29:27;10.82;;;8.88;;
54259;SDS011;40172;53.022;7.012;2023-07-09T02:31:55;14.55;;;8.27;;
54259;SDS011;40172;53.022;7.012;2023-07-09T02:34:22;14.63;;;8.68;;
54259;SDS011;40172;53.022;7.012;2023-07-09T02:36:51;14.15;;;9.20;;
54259;SDS011;40172;53.022;7.012;2023-07-09T02:39:21;12.82;;;8.57;;
54259;SDS011;40172;53.022;7.012;2023-07-09T02:41:47;16.05;;;9.65;;
54259;SDS011;40172;53.022;7.012;2023-07-09T02:44:13;14.82;;;8.68;;
54259;SDS011;40172;53.022;7.012;2023-07-09T02:46:39;9.60;;;8.48;;
54259;SDS011;40172;53.022;7.012;2023-07-09T02:49:05;9.25;;;8.00;;
54259;SDS011;40172;53.022;7.012;2023-07-09T02:51:31;15.52;;;9.07;;
54259;SDS011;40172;53.022;7.012;2023-07-09T02:53:59;12.35;;;8.68;;
54259;SDS011;40172;53.022;7.012;2023-07-09T02:56:25;10.93;;;8.70;;
54259;SDS011;40172;53.022;7.012;2023-07-09T02:58:52;15.48;;;8.25;;
54259;SDS011;40172;53.022;7.012;2023-07-09T03:01:17;10.63;;;8.57;;
54259;SDS011;40172;53.022;7.012;2023-07-09T03:03:49;10.38;;;8.30;;
54259;SDS011;40172;53.022;7.012;2023-07-09T03:06:22;12.00;;;8.52;;
54259;SDS011;40172;53.022;7.012;2023-07-09T03:08:48;10.15;;;8.27;;
54259;SDS011;40172;53.022;7.012;2023-07-09T03:11:15;11.38;;;8.38;;
54259;SDS011;40172;53.022;7.012;2023-07-09T03:13:41;13.45;;;8.93;;
54259;SDS011;40172;53.022;7.012;2023-07-09T03:16:07;10.73;;;8.75;;
54259;SDS011;40172;53.022;7.012;2023-07-09T03:18:32;10.70;;;8.60;;
54259;SDS011;40172;53.022;7.012;2023-07-09T03:20:58;9.65;;;8.15;;
54259;SDS011;40172;53.022;7.012;2023-07-09T03:23:24;13.07;;;8.27;;
54259;SDS011;40172;53.022;7.012;2023-07-09T03:25:50;12.00;;;8.18;;
54259;SDS011;40172;53.022;7.012;2023-07-09T03:28:16;13.73;;;8.23;;
54259;SDS011;40172;53.022;7.012;2023-07-09T03:30:42;10.32;;;8.75;;
54259;SDS011;40172;53.022;7.012;2023-07-09T03:33:09;13.48;;;8.40;;
54259;SDS011;40172;53.022;7.012;2023-07-09T03:35:35;13.38;;;8.68;;
54259;SDS011;40172;53.022;7.012;2023-07-09T03:38:01;13.73;;;8.30;;
54259;SDS011;40172;53.022;7.012;2023-07-09T03:40:27;12.57;;;8.52;;
54259;SDS011;40172;53.022;7.012;2023-07-09T03:42:53;13.82;;;8.52;;
54259;SDS011;40172;53.022;7.012;2023-07-09T03:45:18;11.02;;;7.80;;
54259;SDS011;40172;53.022;7.012;2023-07-09T03:47:44;13.10;;;8.25;;
54259;SDS011;40172;53.022;7.012;2023-07-09T03:50:09;14.98;;;9.18;;
54259;SDS011;40172;53.022;7.012;2023-07-09T03:52:36;10.52;;;8.45;;
54259;SDS011;40172;53.022;7.012;2023-07-09T03:55:02;9.70;;;7.85;;
54259;SDS011;40172;53.022;7.012;2023-07-09T03:57:32;10.95;;;7.78;;
54259;SDS011;40172;53.022;7.012;2023-07-09T03:59:59;9.18;;;8.10;;
54259;SDS011;40172;53.022;7.012;2023-07-09T04:02:24;13.05;;;8.25;;
54259;SDS011;40172;53.022;7.012;2023-07-09T04:04:50;13.05;;;8.68;;
54259;SDS011;40172;53.022;7.012;2023-07-09T04:07:16;12.27;;;8.38;;
54259;SDS011;40172;53.022;7.012;2023-07-09T04:09:41;11.30;;;8.10;;
54259;SDS011;40172;53.022;7.012;2023-07-09T04:12:08;10.27;;;7.95;;
54259;SDS011;40172;53.022;7.012;2023-07-09T04:14:34;13.40;;;8.20;;
54259;SDS011;40172;53.022;7.012;2023-07-09T04:17:00;10.70;;;8.25;;
54259;SDS011;40172;53.022;7.012;2023-07-09T04:19:26;13.25;;;8.50;;
54259;SDS011;40172;53.022;7.012;2023-07-09T04:21:51;12.85;;;8.43;;
54259;SDS011;40172;53.022;7.012;2023-07-09T04:24:18;9.07;;;7.57;;
54259;SDS011;40172;53.022;7.012;2023-07-09T04:26:44;14.77;;;8.27;;
54259;SDS011;40172;53.022;7.012;2023-07-09T04:29:10;10.05;;;8.30;;
54259;SDS011;40172;53.022;7.012;2023-07-09T04:31:36;10.30;;;8.15;;
54259;SDS011;40172;53.022;7.012;2023-07-09T04:34:02;9.20;;;7.95;;
54259;SDS011;40172;53.022;7.012;2023-07-09T04:36:28;10.05;;;8.63;;
54259;SDS011;40172;53.022;7.012;2023-07-09T04:38:54;11.05;;;8.38;;
54259;SDS011;40172;53.022;7.012;2023-07-09T04:41:20;13.57;;;8.80;;
54259;SDS011;40172;53.022;7.012;2023-07-09T04:43:45;13.02;;;8.35;;
54259;SDS011;40172;53.022;7.012;2023-07-09T04:46:11;11.10;;;8.40;;
54259;SDS011;40172;53.022;7.012;2023-07-09T04:48:37;11.90;;;7.93;;
54259;SDS011;40172;53.022;7.012;2023-07-09T04:51:03;8.85;;;7.90;;
54259;SDS011;40172;53.022;7.012;2023-07-09T04:53:29;8.35;;;7.38;;
54259;SDS011;40172;53.022;7.012;2023-07-09T04:55:55;9.13;;;7.50;;
54259;SDS011;40172;53.022;7.012;2023-07-09T04:58:20;17.92;;;8.07;;
54259;SDS011;40172;53.022;7.012;2023-07-09T05:00:46;11.32;;;7.57;;
54259;SDS011;40172;53.022;7.012;2023-07-09T05:03:12;9.70;;;7.78;;
54259;SDS011;40172;53.022;7.012;2023-07-09T05:05:44;9.25;;;7.05;;
54259;SDS011;40172;53.022;7.012;2023-07-09T05:08:11;12.27;;;6.85;;
54259;SDS011;40172;53.022;7.012;2023-07-09T05:10:41;13.73;;;7.90;;
54259;SDS011;40172;53.022;7.012;2023-07-09T05:13:11;12.63;;;7.68;;
54259;SDS011;40172;53.022;7.012;2023-07-09T05:15:39;14.27;;;7.63;;
54259;SDS011;40172;53.022;7.012;2023-07-09T05:18:06;15.40;;;7.15;;
54259;SDS011;40172;53.022;7.012;2023-07-09T05:20:33;9.80;;;7.32;;
54259;SDS011;40172;53.022;7.012;2023-07-09T05:22:59;17.08;;;7.57;;
54259;SDS011;40172;53.022;7.012;2023-07-09T05:25:25;14.50;;;7.22;;
54259;SDS011;40172;53.022;7.012;2023-07-09T05:27:51;9.90;;;7.00;;
54259;SDS011;40172;53.022;7.012;2023-07-09T05:30:17;10.43;;;7.18;;
54259;SDS011;40172;53.022;7.012;2023-07-09T05:32:44;11.60;;;7.18;;
54259;SDS011;40172;53.022;7.012;2023-07-09T05:35:09;9.15;;;7.28;;
54259;SDS011;40172;53.022;7.012;2023-07-09T05:37:35;10.57;;;7.10;;
54259;SDS011;40172;53.022;7.012;2023-07-09T05:40:02;12.95;;;7.25;;
54259;SDS011;40172;53.022;7.012;2023-07-09T05:42:30;10.52;;;7.30;;
54259;SDS011;40172;53.022;7.012;2023-07-09T05:44:56;10.07;;;6.55;;
54259;SDS011;40172;53.022;7.012;2023-07-09T05:47:22;8.43;;;6.70;;
54259;SDS011;40172;53.022;7.012;2023-07-09T05:49:48;9.75;;;7.30;;
54259;SDS011;40172;53.022;7.012;2023-07-09T05:52:16;12.13;;;7.45;;
54259;SDS011;40172;53.022;7.012;2023-07-09T05:54:42;9.82;;;6.65;;
54259;SDS011;40172;53.022;7.012;2023-07-09T05:57:08;10.00;;;7.25;;
54259;SDS011;40172;53.022;7.012;2023-07-09T05:59:33;8.75;;;6.75;;
54259;SDS011;40172;53.022;7.012;2023-07-09T06:01:59;10.93;;;6.88;;
54259;SDS011;40172;53.022;7.012;2023-07-09T06:04:26;10.07;;;7.47;;
54259;SDS011;40172;53.022;7.012;2023-07-09T06:06:52;17.00;;;6.60;;
54259;SDS011;40172;53.022;7.012;2023-07-09T06:09:18;10.40;;;7.18;;
54259;SDS011;40172;53.022;7.012;2023-07-09T06:11:44;9.77;;;6.55;;
54259;SDS011;40172;53.022;7.012;2023-07-09T06:14:10;9.10;;;7.00;;
54259;SDS011;40172;53.022;7.012;2023-07-09T06:16:35;18.45;;;7.28;;
54259;SDS011;40172;53.022;7.012;2023-07-09T06:19:02;10.45;;;6.93;;
54259;SDS011;40172;53.022;7.012;2023-07-09T06:21:28;13.82;;;6.85;;
54259;SDS011;40172;53.022;7.012;2023-07-09T06:23:54;11.73;;;6.78;;
54259;SDS011;40172;53.022;7.012;2023-07-09T06:26:19;15.95;;;6.90;;
54259;SDS011;40172;53.022;7.012;2023-07-09T06:28:45;12.50;;;7.13;;
54259;SDS011;40172;53.022;7.012;2023-07-09T06:31:11;13.10;;;7.05;;
54259;SDS011;40172;53.022;7.012;2023-07-09T06:33:37;12.43;;;7.03;;
54259;SDS011;40172;53.022;7.012;2023-07-09T06:36:03;9.60;;;6.47;;
54259;SDS011;40172;53.022;7.012;2023-07-09T06:38:30;9.23;;;7.38;;
54259;SDS011;40172;53.022;7.012;2023-07-09T06:40:58;12.32;;;6.97;;
54259;SDS011;40172;53.022;7.012;2023-07-09T06:43:24;7.47;;;6.63;;
54259;SDS011;40172;53.022;7.012;2023-07-09T06:45:57;10.88;;;6.82;;
54259;SDS011;40172;53.022;7.012;2023-07-09T06:48:24;12.30;;;6.57;;
54259;SDS011;40172;53.022;7.012;2023-07-09T06:50:51;11.43;;;7.28;;
54259;SDS011;40172;53.022;7.012;2023-07-09T06:53:18;11.48;;;7.53;;
54259;SDS011;40172;53.022;7.012;2023-07-09T06:55:45;10.35;;;8.15;;
54259;SDS011;40172;53.022;7.012;2023-07-09T06:58:12;14.13;;;7.50;;
54259;SDS011;40172;53.022;7.012;2023-07-09T07:00:38;11.60;;;7.45;;
54259;SDS011;40172;53.022;7.012;2023-07-09T07:03:04;11.20;;;7.10;;
54259;SDS011;40172;53.022;7.012;2023-07-09T07:05:30;13.63;;;7.13;;
54259;SDS011;40172;53.022;7.012;2023-07-09T07:07:56;11.27;;;7.18;;
54259;SDS011;40172;53.022;7.012;2023-07-09T07:10:22;10.52;;;7.05;;
54259;SDS011;40172;53.022;7.012;2023-07-09T07:12:48;9.98;;;6.95;;
54259;SDS011;40172;53.022;7.012;2023-07-09T07:15:15;9.93;;;7.03;;
54259;SDS011;40172;53.022;7.012;2023-07-09T07:17:42;12.30;;;7.10;;
54259;SDS011;40172;53.022;7.012;2023-07-09T07:20:09;13.45;;;6.85;;
54259;SDS011;40172;53.022;7.012;2023-07-09T07:22:36;10.43;;;6.72;;
54259;SDS011;40172;53.022;7.012;2023-07-09T07:25:03;9.88;;;7.15;;
54259;SDS011;40172;53.022;7.012;2023-07-09T07:27:29;9.88;;;7.18;;
54259;SDS011;40172;53.022;7.012;2023-07-09T07:29:55;14.07;;;7.78;;
54259;SDS011;40172;53.022;7.012;2023-07-09T07:32:20;12.88;;;6.97;;
54259;SDS011;40172;53.022;7.012;2023-07-09T07:34:47;10.55;;;6.85;;
54259;SDS011;40172;53.022;7.012;2023-07-09T07:37:13;8.50;;;6.43;;
54259;SDS011;40172;53.022;7.012;2023-07-09T07:39:39;10.07;;;6.85;;
54259;SDS011;40172;53.022;7.012;2023-07-09T07:42:05;10.18;;;6.57;;
54259;SDS011;40172;53.022;7.012;2023-07-09T07:44:31;14.27;;;6.30;;
54259;SDS011;40172;53.022;7.012;2023-07-09T07:46:57;10.45;;;6.80;;
54259;SDS011;40172;53.022;7.012;2023-07-09T07:49:23;12.18;;;6.82;;
54259;SDS011;40172;53.022;7.012;2023-07-09T07:51:48;12.98;;;7.05;;
54259;SDS011;40172;53.022;7.012;2023-07-09T07:54:14;10.45;;;7.05;;
54259;SDS011;40172;53.022;7.012;2023-07-09T07:56:39;7.93;;;6.20;;
54259;SDS011;40172;53.022;7.012;2023-07-09T07:59:05;8.35;;;6.60;;
54259;SDS011;40172;53.022;7.012;2023-07-09T08:01:30;12.27;;;6.43;;
54259;SDS011;40172;53.022;7.012;2023-07-09T08:03:56;12.02;;;6.68;;
54259;SDS011;40172;53.022;7.012;2023-07-09T08:06:22;12.88;;;6.68;;
54259;SDS011;40172;53.022;7.012;2023-07-09T08:08:48;10.65;;;6.57;;
54259;SDS011;40172;53.022;7.012;2023-07-09T08:11:14;12.95;;;7.38;;
54259;SDS011;40172;53.022;7.012;2023-07-09T08:13:40;13.30;;;6.60;;
54259;SDS011;40172;53.022;7.012;2023-07-09T08:16:06;8.70;;;6.70;;
54259;SDS011;40172;53.022;7.012;2023-07-09T08:18:32;12.05;;;7.10;;
54259;SDS011;40172;53.022;7.012;2023-07-09T08:20:59;10.88;;;6.65;;
54259;SDS011;40172;53.022;7.012;2023-07-09T08:23:25;10.43;;;6.45;;
54259;SDS011;40172;53.022;7.012;2023-07-09T08:25:54;10.88;;;6.50;;
54259;SDS011;40172;53.022;7.012;2023-07-09T08:28:20;8.02;;;6.65;;
54259;SDS011;40172;53.022;7.012;2023-07-09T08:30:46;12.85;;;6.55;;
54259;SDS011;40172;53.022;7.012;2023-07-09T08:33:11;11.93;;;6.30;;
54259;SDS011;40172;53.022;7.012;2023-07-09T08:35:37;14.77;;;6.70;;
54259;SDS011;40172;53.022;7.012;2023-07-09T08:38:03;9.77;;;6.38;;
54259;SDS011;40172;53.022;7.012;2023-07-09T08:40:29;10.40;;;6.50;;
54259;SDS011;40172;53.022;7.012;2023-07-09T08:42:58;8.88;;;6.63;;
54259;SDS011;40172;53.022;7.012;2023-07-09T08:45:40;13.45;;;6.32;;
54259;SDS011;40172;53.022;7.012;2023-07-09T08:48:30;11.43;;;6.22;;
54259;SDS011;40172;53.022;7.012;2023-07-09T08:51:13;11.85;;;5.78;;
54259;SDS011;40172;53.022;7.012;2023-07-09T08:53:59;9.43;;;6.18;;
54259;SDS011;40172;53.022;7.012;2023-07-09T08:56:26;11.25;;;6.43;;
54259;SDS011;40172;53.022;7.012;2023-07-09T08:58:55;10.65;;;6.70;;
54259;SDS011;40172;53.022;7.012;2023-07-09T09:01:24;13.50;;;5.93;;
54259;SDS011;40172;53.022;7.012;2023-07-09T09:03:55;12.15;;;6.03;;
54259;SDS011;40172;53.022;7.012;2023-07-09T09:06:26;11.60;;;6.68;;
54259;SDS011;40172;53.022;7.012;2023-07-09T09:09:12;11.07;;;5.90;;
54259;SDS011;40172;53.022;7.012;2023-07-09T09:11:49;9.40;;;5.80;;
54259;SDS011;40172;53.022;7.012;2023-07-09T09:14:37;11.43;;;6.10;;
54259;SDS011;40172;53.022;7.012;2023-07-09T09:17:11;8.35;;;5.75;;
54259;SDS011;40172;53.022;7.012;2023-07-09T09:22:25;13.68;;;5.82;;
54259;SDS011;40172;53.022;7.012;2023-07-09T09:24:57;9.68;;;5.78;;
54259;SDS011;40172;53.022;7.012;2023-07-09T09:27:28;13.82;;;6.22;;
54259;SDS011;40172;53.022;7.012;2023-07-09T09:29:54;13.98;;;5.80;;
54259;SDS011;40172;53.022;7.012;2023-07-09T09:32:41;11.75;;;5.65;;
54259;SDS011;40172;53.022;7.012;2023-07-09T09:35:11;9.68;;;6.25;;
54259;SDS011;40172;53.022;7.012;2023-07-09T09:37:38;11.95;;;5.70;;
54259;SDS011;40172;53.022;7.012;2023-07-09T09:40:04;9.63;;;5.70;;
54259;SDS011;40172;53.022;7.012;2023-07-09T09:42:33;11.85;;;5.80;;
54259;SDS011;40172;53.022;7.012;2023-07-09T09:44:59;10.45;;;5.25;;
54259;SDS011;40172;53.022;7.012;2023-07-09T09:47:26;12.98;;;5.68;;
54259;SDS011;40172;53.022;7.012;2023-07-09T09:49:55;10.15;;;5.50;;
54259;SDS011;40172;53.022;7.012;2023-07-09T09:52:24;13.05;;;5.80;;
54259;SDS011;40172;53.022;7.012;2023-07-09T09:55:05;7.72;;;5.15;;
54259;SDS011;40172;53.022;7.012;2023-07-09T09:57:36;14.50;;;6.28;;
54259;SDS011;40172;53.022;7.012;2023-07-09T10:00:02;10.05;;;5.30;;
54259;SDS011;40172;53.022;7.012;2023-07-09T10:02:37;11.50;;;6.05;;
54259;SDS011;40172;53.022;7.012;2023-07-09T10:05:10;14.60;;;5.88;;
54259;SDS011;40172;53.022;7.012;2023-07-09T10:07:39;11.93;;;5.80;;
54259;SDS011;40172;53.022;7.012;2023-07-09T10:10:23;8.52;;;5.65;;
54259;SDS011;40172;53.022;7.012;2023-07-09T10:12:54;14.07;;;5.90;;
54259;SDS011;40172;53.022;7.012;2023-07-09T10:20:41;8.80;;;4.97;;
54259;SDS011;40172;53.022;7.012;2023-07-09T10:23:23;7.63;;;5.13;;
54259;SDS011;40172;53.022;7.012;2023-07-09T10:36:47;13.73;;;5.47;;
54259;SDS011;40172;53.022;7.012;2023-07-09T10:39:34;11.60;;;5.45;;
54259;SDS011;40172;53.022;7.012;2023-07-09T10:42:08;12.30;;;5.40;;
54259;SDS011;40172;53.022;7.012;2023-07-09T10:44:43;11.45;;;5.18;;
54259;SDS011;40172;53.022;7.012;2023-07-09T10:47:30;10.27;;;5.00;;
54259;SDS011;40172;53.022;7.012;2023-07-09T10:50:00;12.13;;;5.03;;
54259;SDS011;40172;53.022;7.012;2023-07-09T10:52:30;6.10;;;4.65;;
54259;SDS011;40172;53.022;7.012;2023-07-09T10:55:03;8.98;;;4.60;;
54259;SDS011;40172;53.022;7.012;2023-07-09T10:57:51;8.38;;;4.57;;
54259;SDS011;40172;53.022;7.012;2023-07-09T11:00:22;10.05;;;4.85;;
54259;SDS011;40172;53.022;7.012;2023-07-09T11:03:02;9.43;;;5.15;;
54259;SDS011;40172;53.022;7.012;2023-07-09T11:05:55;8.98;;;4.00;;
54259;SDS011;40172;53.022;7.012;2023-07-09T11:08:23;7.97;;;4.28;;
54259;SDS011;40172;53.022;7.012;2023-07-09T11:10:59;10.85;;;4.47;;
54259;SDS011;40172;53.022;7.012;2023-07-09T11:16:01;7.53;;;4.47;;
54259;SDS011;40172;53.022;7.012;2023-07-09T11:18:30;9.55;;;4.40;;
54259;SDS011;40172;53.022;7.012;2023-07-09T11:21:13;7.28;;;4.60;;
54259;SDS011;40172;53.022;7.012;2023-07-09T11:23:45;11.07;;;4.45;;
54259;SDS011;40172;53.022;7.012;2023-07-09T11:36:49;9.90;;;4.60;;
54259;SDS011;40172;53.022;7.012;2023-07-09T11:42:23;10.23;;;4.47;;
54259;SDS011;40172;53.022;7.012;2023-07-09T11:44:52;10.48;;;4.63;;
54259;SDS011;40172;53.022;7.012;2023-07-09T11:47:25;13.68;;;4.78;;
54259;SDS011;40172;53.022;7.012;2023-07-09T11:50:00;8.02;;;4.32;;
54259;SDS011;40172;53.022;7.012;2023-07-09T11:52:37;11.35;;;4.15;;
54259;SDS011;40172;53.022;7.012;2023-07-09T11:57:46;8.95;;;4.35;;
54259;SDS011;40172;53.022;7.012;2023-07-09T12:00:14;8.05;;;4.22;;
54259;SDS011;40172;53.022;7.012;2023-07-09T12:02:40;7.53;;;3.92;;
54259;SDS011;40172;53.022;7.012;2023-07-09T12:05:06;6.80;;;3.80;;
54259;SDS011;40172;53.022;7.012;2023-07-09T12:07:32;8.70;;;4.32;;
54259;SDS011;40172;53.022;7.012;2023-07-09T12:10:02;6.32;;;4.18;;
54259;SDS011;40172;53.022;7.012;2023-07-09T12:12:34;8.15;;;4.05;;
54259;SDS011;40172;53.022;7.012;2023-07-09T12:14:59;8.40;;;4.22;;
54259;SDS011;40172;53.022;7.012;2023-07-09T12:17:31;8.13;;;4.00;;
54259;SDS011;40172;53.022;7.012;2023-07-09T12:19:59;7.95;;;4.30;;
54259;SDS011;40172;53.022;7.012;2023-07-09T12:22:24;7.43;;;4.22;;
54259;SDS011;40172;53.022;7.012;2023-07-09T12:24:50;9.45;;;4.10;;
54259;SDS011;40172;53.022;7.012;2023-07-09T12:27:18;8.52;;;4.22;;
54259;SDS011;40172;53.022;7.012;2023-07-09T12:29:46;8.63;;;3.97;;
54259;SDS011;40172;53.022;7.012;2023-07-09T12:32:12;6.97;;;4.18;;
54259;SDS011;40172;53.022;7.012;2023-07-09T12:34:40;8.35;;;3.65;;
54259;SDS011;40172;53.022;7.012;2023-07-09T12:37:08;7.28;;;4.13;;
54259;SDS011;40172;53.022;7.012;2023-07-09T12:39:38;10.18;;;4.10;;
54259;SDS011;40172;53.022;7.012;2023-07-09T12:42:04;9.40;;;3.80;;
54259;SDS011;40172;53.022;7.012;2023-07-09T12:44:31;9.73;;;3.97;;
54259;SDS011;40172;53.022;7.012;2023-07-09T12:47:01;10.30;;;4.13;;
54259;SDS011;40172;53.022;7.012;2023-07-09T12:49:28;10.90;;;3.75;;
54259;SDS011;40172;53.022;7.012;2023-07-09T12:52:01;10.82;;;3.78;;
54259;SDS011;40172;53.022;7.012;2023-07-09T12:54:28;6.10;;;3.50;;
54259;SDS011;40172;53.022;7.012;2023-07-09T12:56:55;7.10;;;3.90;;
54259;SDS011;40172;53.022;7.012;2023-07-09T12:59:27;9.45;;;3.78;;
54259;SDS011;40172;53.022;7.012;2023-07-09T13:02:02;6.38;;;3.80;;
54259;SDS011;40172;53.022;7.012;2023-07-09T13:04:47;8.50;;;3.88;;
54259;SDS011;40172;53.022;7.012;2023-07-09T13:09:48;8.30;;;3.95;;
54259;SDS011;40172;53.022;7.012;2023-07-09T13:12:15;7.60;;;3.35;;
54259;SDS011;40172;53.022;7.012;2023-07-09T13:14:40;8.82;;;4.15;;
54259;SDS011;40172;53.022;7.012;2023-07-09T13:17:07;6.13;;;3.97;;
54259;SDS011;40172;53.022;7.012;2023-07-09T13:19:37;10.32;;;4.03;;
54259;SDS011;40172;53.022;7.012;2023-07-09T13:22:04;11.05;;;3.50;;
54259;SDS011;40172;53.022;7.012;2023-07-09T13:24:31;9.55;;;4.45;;
54259;SDS011;40172;53.022;7.012;2023-07-09T13:27:00;10.38;;;4.15;;
54259;SDS011;40172;53.022;7.012;2023-07-09T13:29:27;9.95;;;4.10;;
54259;SDS011;40172;53.022;7.012;2023-07-09T13:31:53;6.47;;;3.70;;
54259;SDS011;40172;53.022;7.012;2023-07-09T13:34:23;6.32;;;4.13;;
54259;SDS011;40172;53.022;7.012;2023-07-09T13:36:51;9.05;;;3.80;;
54259;SDS011;40172;53.022;7.012;2023-07-09T13:39:19;9.52;;;3.83;;
54259;SDS011;40172;53.022;7.012;2023-07-09T13:41:46;9.80;;;4.13;;
54259;SDS011;40172;53.022;7.012;2023-07-09T13:44:14;6.53;;;3.88;;
54259;SDS011;40172;53.022;7.012;2023-07-09T13:46:45;7.78;;;3.65;;
54259;SDS011;40172;53.022;7.012;2023-07-09T13:49:12;8.85;;;3.63;;
54259;SDS011;40172;53.022;7.012;2023-07-09T13:51:40;6.20;;;3.67;;
54259;SDS011;40172;53.022;7.012;2023-07-09T13:54:15;10.32;;;3.88;;
54259;SDS011;40172;53.022;7.012;2023-07-09T13:56:47;9.23;;;4.35;;
54259;SDS011;40172;53.022;7.012;2023-07-09T13:59:21;6.38;;;3.50;;
54259;SDS011;40172;53.022;7.012;2023-07-09T14:01:50;8.18;;;3.95;;
54259;SDS011;40172;53.022;7.012;2023-07-09T14:04:19;10.57;;;3.97;;
54259;SDS011;40172;53.022;7.012;2023-07-09T14:06:45;8.45;;;3.97;;
54259;SDS011;40172;53.022;7.012;2023-07-09T14:09:11;9.82;;;4.22;;
54259;SDS011;40172;53.022;7.012;2023-07-09T14:11:58;7.47;;;3.55;;
54259;SDS011;40172;53.022;7.012;2023-07-09T14:14:24;8.40;;;4.10;;
54259;SDS011;40172;53.022;7.012;2023-07-09T14:16:52;9.15;;;4.20;;
54259;SDS011;40172;53.022;7.012;2023-07-09T14:19:19;6.68;;;4.68;;
54259;SDS011;40172;53.022;7.012;2023-07-09T14:21:46;9.32;;;4.13;;
54259;SDS011;40172;53.022;7.012;2023-07-09T14:24:20;9.00;;;4.00;;
54259;SDS011;40172;53.022;7.012;2023-07-09T14:26:48;7.05;;;3.97;;
54259;SDS011;40172;53.022;7.012;2023-07-09T14:29:15;8.07;;;4.00;;
54259;SDS011;40172;53.022;7.012;2023-07-09T14:31:41;11.63;;;4.40;;
54259;SDS011;40172;53.022;7.012;2023-07-09T14:34:15;8.35;;;4.07;;
54259;SDS011;40172;53.022;7.012;2023-07-09T14:36:55;11.18;;;4.28;;
54259;SDS011;40172;53.022;7.012;2023-07-09T14:39:22;7.55;;;4.18;;
54259;SDS011;40172;53.022;7.012;2023-07-09T14:41:49;10.73;;;4.60;;
54259;SDS011;40172;53.022;7.012;2023-07-09T14:46:49;19.02;;;4.55;;
54259;SDS011;40172;53.022;7.012;2023-07-09T14:49:16;17.40;;;4.07;;
54259;SDS011;40172;53.022;7.012;2023-07-09T14:51:42;9.65;;;4.50;;
54259;SDS011;40172;53.022;7.012;2023-07-09T14:54:27;7.75;;;4.68;;
54259;SDS011;40172;53.022;7.012;2023-07-09T14:56:55;6.32;;;3.95;;
54259;SDS011;40172;53.022;7.012;2023-07-09T14:59:22;11.50;;;4.63;;
54259;SDS011;40172;53.022;7.012;2023-07-09T15:01:48;9.32;;;4.40;;
54259;SDS011;40172;53.022;7.012;2023-07-09T15:06:49;7.40;;;4.55;;
54259;SDS011;40172;53.022;7.012;2023-07-09T15:09:18;7.63;;;4.40;;
54259;SDS011;40172;53.022;7.012;2023-07-09T15:11:52;9.88;;;4.75;;
54259;SDS011;40172;53.022;7.012;2023-07-09T15:14:24;10.57;;;4.50;;
54259;SDS011;40172;53.022;7.012;2023-07-09T15:16:51;11.25;;;4.43;;
54259;SDS011;40172;53.022;7.012;2023-07-09T15:19:19;11.02;;;4.50;;
54259;SDS011;40172;53.022;7.012;2023-07-09T15:21:46;9.82;;;4.90;;
54259;SDS011;40172;53.022;7.012;2023-07-09T15:26:48;9.60;;;4.72;;
54259;SDS011;40172;53.022;7.012;2023-07-09T15:29:17;6.55;;;4.85;;
54259;SDS011;40172;53.022;7.012;2023-07-09T15:31:43;9.38;;;4.40;;
54259;SDS011;40172;53.022;7.012;2023-07-09T15:34:09;10.88;;;5.10;;
54259;SDS011;40172;53.022;7.012;2023-07-09T15:36:35;8.05;;;4.68;;